Voo Doo — V7YS8 — position and weather

sailwx.info

Track history (hours):
 
Tides and Currents Weather Stations Pressure Air Temp Water Temp Dewpoint Dewpoint Depression Visibility Wind Speed Wind Dir Waves Ship Positions

Voo Doo

Last reported at 2017-Dec-07 16:34 UTC. Time now 2018-Jan-20 19:23 UTC.
Position N 18°05' W 063°20'.
Warning: this ship's position is 44 days out of date.

Length 22 m.

Type: Sailing vessel. MMSI: 538070861.

Date/timePositionNaut miles runAvg speedWind from/ knotsBaromVisibWave heightAir tempDewpointWater temp
2017-Dec-07 16:34N 18°05' W 063°20'1 7.6
2017-Dec-07 16:30N 18°05' W 063°19'4 7.9
2017-Dec-07 16:00N 18°04' W 063°15'4 7.9
2017-Dec-07 15:30N 18°03' W 063°11'4 7.1
2017-Dec-07 15:00N 18°02' W 063°08'2 3.3
2017-Dec-07 14:26N 18°02' W 063°06'0 0.7
2017-Dec-07 13:58N 18°02' W 063°05'0 0.0
2017-Dec-07 13:28N 18°02' W 063°05'0 0.0
2017-Dec-07 12:58N 18°02' W 063°05'0 0.0
2017-Dec-07 12:28N 18°02' W 063°05'  
Track history (hours):
 
Tides and Currents Weather Stations Pressure Air Temp Water Temp Dewpoint Dewpoint Depression Visibility Wind Speed Wind Dir Waves Ship Positions

Voo Doo

Last reported at 2017-Dec-07 16:34 UTC. Time now 2018-Jan-20 19:23 UTC.
Position N 18°05' W 063°20'.
Warning: this ship's position is 44 days out of date.

Length 22 m.

Type: Sailing vessel. MMSI: 538070861.

Date/timePositionNaut miles runAvg speedWind from/ knotsBaromVisibWave heightAir tempDewpointWater temp
2017-Dec-07 16:34N 18°05' W 063°20'1 7.6
2017-Dec-07 16:30N 18°05' W 063°19'4 7.9
2017-Dec-07 16:00N 18°04' W 063°15'4 7.9
2017-Dec-07 15:30N 18°03' W 063°11'4 7.1
2017-Dec-07 15:00N 18°02' W 063°08'2 3.3
2017-Dec-07 14:26N 18°02' W 063°06'0 0.7
2017-Dec-07 13:58N 18°02' W 063°05'0 0.0
2017-Dec-07 13:28N 18°02' W 063°05'0 0.0
2017-Dec-07 12:58N 18°02' W 063°05'0 0.0
2017-Dec-07 12:28N 18°02' W 063°05'  

Dump ship's entire track history